Terminal Aerodrome Forecast
Issued by NWS Wilmington, OH

Current Version | Previous Version | Text Only | Print | Product List | Glossary Off
Versions: 1 2 3 4 5 6 7 8 9 10 11 12 13 14 15 16 17 18 19 20 21 22 23 24

000
FTUS41 KILN 220800 AAA
TAFCVG
TAF AMD
KCVG 220858Z 2209/2312 26005KT P6SM OVC050
     FM221300 32012KT P6SM SCT040
     FM221500 32016G24KT P6SM SKC
     FM230000 34010KT P6SM SKC=

USA.gov is the U.S. government's official web portal to all federal, state and local government web resources and services.